Terminal Aerodrome Forecast
Issued by NWS Central Illinois

Home | Current Version | Previous Version | Text Only | Print | Product List | Glossary On
Versions: 1 2 3 4 5 6 7 8 9 10 11 12 13 14 15 16
000
FTUS43 KILX 232300 RRA
TAFSPI
TAF
KSPI 232345Z 2400/2424 09009KT P6SM BKN100 OVC110
     FM240200 12012KT P6SM BKN050
     FM241400 15015G23KT P6SM VCSH BKN040
     FM241800 17018G28KT P6SM VCTS OVC040CB=

USA.gov is the U.S. government's official web portal to all federal, state and local government web resources and services.